Time;durP1;ratioP1;P1;durP2;ratioP2;P2;SDS_P1;SDS_P2;PMS_P1;PMS_P2;Temp;Humidity;BMP_temperature;BMP_pressure;BME280_temperature;BME280_humidity;BME280_pressure;Samples;Min_cycle;Max_cycle;Signal;HPM_P1;HPM_P2
2021/10/14 12:02:43;;;;;;;7.15;2.60;;;13.70;99.90;;;;;;12184959;27;20402;-61
2021/10/14 12:08:31;;;;;;;9.18;2.85;;;14.40;99.90;;;;;;12191134;27;20054;-63
2021/10/14 12:14:25;;;;;;;6.68;2.22;;;14.80;99.90;;;;;;12193719;27;20058;-63
2021/10/14 12:20:15;;;;;;;5.35;2.08;;;15.20;99.90;;;;;;12184606;28;20092;-63
2021/10/14 12:26:17;;;;;;;8.77;2.10;;;15.40;99.90;;;;;;12197649;27;20047;-63
2021/10/14 12:32:07;;;;;;;9.48;1.92;;;15.60;99.90;;;;;;12148270;27;20062;-62
2021/10/14 12:38:12;;;;;;;8.43;2.20;;;15.80;99.90;;;;;;12156865;28;20055;-63
2021/10/14 12:44:08;;;;;;;6.55;2.10;;;16.00;99.90;;;;;;12168875;27;20043;-63
2021/10/14 12:50:13;;;;;;;6.97;1.80;;;16.10;99.90;;;;;;12185240;27;20066;-63
2021/10/14 12:56:03;;;;;;;3.60;2.10;;;16.30;99.90;;;;;;12196642;28;20055;-62
2021/10/14 13:01:51;;;;;;;7.30;2.25;;;16.50;99.90;;;;;;12157249;27;20224;-62
2021/10/14 13:07:38;;;;;;;7.63;2.17;;;16.60;99.90;;;;;;12150413;27;20057;-62
2021/10/14 13:13:26;;;;;;;5.65;2.03;;;16.80;99.90;;;;;;12150987;28;20051;-62
2021/10/14 13:19:13;;;;;;;7.05;2.90;;;16.90;99.90;;;;;;12113435;28;20388;-62
2021/10/14 13:25:00;;;;;;;7.05;2.08;;;17.00;99.90;;;;;;12096449;28;20056;-62
2021/10/14 13:30:49;;;;;;;6.35;2.58;;;17.20;99.90;;;;;;12129142;28;20052;-62
2021/10/14 13:36:36;;;;;;;5.00;2.20;;;17.30;98.60;;;;;;12124652;28;20063;-62
2021/10/14 13:42:28;;;;;;;4.20;2.33;;;17.40;97.90;;;;;;12115939;28;20048;-64
2021/10/14 13:48:23;;;;;;;8.90;2.58;;;17.50;98.60;;;;;;12113644;28;20062;-65
2021/10/14 13:54:11;;;;;;;4.65;2.20;;;17.60;98.10;;;;;;12104496;22;20427;-79
2021/10/14 13:59:58;;;;;;;6.78;2.28;;;17.70;96.50;;;;;;11956076;28;20159;-79
2021/10/14 14:38:36;;;;;;;4.38;2.38;;;18.20;93.90;;;;;;11330707;29;20509;-84
2021/10/14 14:44:44;;;;;;;;;;;;;;;;;;;;;
2021/10/14 14:50:44;;;;;;;7.72;2.63;;;18.20;94.10;;;;;;11751247;28;20058;-82
2021/10/14 14:56:31;;;;;;;9.35;2.25;;;18.20;93.90;;;;;;11975250;28;20041;-82
2021/10/14 15:02:19;;;;;;;6.53;2.25;;;18.20;92.60;;;;;;11904544;28;20158;-82
2021/10/14 15:08:08;;;;;;;9.77;2.50;;;18.10;91.80;;;;;;12009582;28;20618;-81
2021/10/14 15:13:57;;;;;;;6.15;2.70;;;18.00;93.00;;;;;;11979834;28;20053;-84
2021/10/14 15:20:17;;;;;;;;;;;;;;;;;;;;;
2021/10/14 15:46:41;;;;;;;10.13;2.60;;;17.50;99.90;;;;;;11673764;28;20511;-85
2021/10/14 15:52:28;;;;;;;8.32;2.50;;;17.10;99.90;;;;;;11700355;28;20086;-83
2021/10/14 15:58:20;;;;;;;6.85;2.70;;;16.70;99.90;;;;;;11684757;28;20060;-82
2021/10/14 16:04:13;;;;;;;9.80;2.90;;;16.20;99.90;;;;;;11692590;29;20062;-83
2021/10/14 16:10:00;;;;;;;8.90;3.03;;;15.80;99.90;;;;;;11939671;28;20057;-79
2021/10/14 16:15:48;;;;;;;6.85;2.35;;;15.70;99.90;;;;;;11992854;28;20117;-81
2021/10/14 16:21:36;;;;;;;9.63;2.88;;;15.30;99.90;;;;;;11965945;28;20060;-83
2021/10/14 16:27:23;;;;;;;5.18;3.03;;;15.10;99.90;;;;;;11951198;28;20111;-83
2021/10/14 16:33:31;;;;;;;5.82;2.88;;;15.10;99.90;;;;;;11999151;28;20049;-80
2021/10/14 16:39:20;;;;;;;7.05;3.28;;;15.00;99.90;;;;;;11961672;28;21203;-81
2021/10/14 16:45:13;;;;;;;7.47;3.50;;;14.80;99.90;;;;;;11968952;28;20068;-84
2021/10/14 16:51:00;;;;;;;;;;;14.80;99.90;;;;;;11982674;28;20059;-80
2021/10/14 16:56:52;;;;;;;10.43;3.75;;;14.50;99.90;;;;;;11989716;28;19924;-80
2021/10/14 17:02:39;;;;;;;6.93;3.63;;;14.30;99.90;;;;;;11986211;28;20187;-80
2021/10/14 17:08:26;;;;;;;13.90;4.20;;;14.30;99.90;;;;;;12004180;28;20132;-79
2021/10/14 17:14:14;;;;;;;7.47;3.40;;;14.20;99.90;;;;;;12009441;28;20049;-80
2021/10/14 17:20:15;;;;;;;10.32;3.90;;;13.90;99.90;;;;;;11978720;28;20064;-79
2021/10/14 17:38:16;;;;;;;12.27;4.55;;;13.70;99.90;;;;;;11957125;28;20037;-80
2021/10/14 17:44:05;;;;;;;11.45;4.35;;;13.70;99.90;;;;;;11959720;28;20100;-81
2021/10/14 17:49:56;;;;;;;7.20;4.22;;;13.60;99.90;;;;;;12003952;28;20057;-80
2021/10/14 17:55:43;;;;;;;8.00;3.97;;;13.50;99.90;;;;;;11960633;28;20579;-84
2021/10/14 18:01:37;;;;;;;15.45;4.15;;;13.50;99.90;;;;;;11976960;28;20079;-85
2021/10/14 18:07:43;;;;;;;12.77;4.85;;;13.30;99.90;;;;;;11968231;28;20044;-84
2021/10/14 18:43:49;;;;;;;23.60;10.02;;;13.30;99.90;;;;;;11583701;29;20133;-82
2021/10/14 18:49:38;;;;;;;15.90;4.93;;;13.20;99.90;;;;;;11589172;29;20630;-83
2021/10/14 18:55:25;;;;;;;13.90;4.55;;;13.20;99.90;;;;;;11587332;29;20116;-80
2021/10/14 19:01:13;;;;;;;11.68;5.22;;;13.10;99.90;;;;;;11690057;28;20051;-80
2021/10/14 19:07:07;;;;;;;14.35;5.40;;;13.20;99.90;;;;;;11849393;28;20080;-80
2021/10/14 19:19:22;;;;;;;14.23;6.70;;;13.10;99.90;;;;;;11965658;28;20045;-80
